Time;durP1;ratioP1;P1;durP2;ratioP2;P2;SDS_P1;SDS_P2;PMS_P1;PMS_P2;Temp;Humidity;BMP_temperature;BMP_pressure;BME280_temperature;BME280_humidity;BME280_pressure;Samples;Min_cycle;Max_cycle;Signal;HPM_P1;HPM_P2
2023/09/21 00:00:22;;;;;;;2.90;1.50;;;;;;;25.64;53.79;100718.17;108109;1288;21995;-59
2023/09/21 00:02:49;;;;;;;3.60;1.70;;;;;;;25.64;53.78;100721.40;108131;1288;21986;-66
2023/09/21 00:05:19;;;;;;;4.10;1.80;;;;;;;25.65;53.85;100718.15;108148;1288;22135;-66
2023/09/21 00:07:45;;;;;;;4.00;2.00;;;;;;;25.65;53.87;100721.02;108245;1276;21994;-59
2023/09/21 00:10:12;;;;;;;2.30;1.50;;;;;;;25.63;53.74;100722.20;108156;1287;22172;-59
2023/09/21 00:12:38;;;;;;;4.10;2.00;;;;;;;25.64;53.83;100719.95;108177;1280;21984;-65
2023/09/21 00:15:06;;;;;;;4.90;1.90;;;;;;;25.66;53.75;100721.62;108163;1282;21977;-65
2023/09/21 00:17:33;;;;;;;6.20;1.90;;;;;;;25.68;53.93;100720.61;108174;1288;21995;-65
2023/09/21 00:20:21;;;;;;;3.20;1.90;;;;;;;25.67;53.74;100719.61;108186;1288;22363;-66
2023/09/21 00:22:47;;;;;;;3.80;1.70;;;;;;;25.72;53.40;100714.80;108152;1288;22052;-66
2023/09/21 00:25:14;;;;;;;2.70;1.60;;;;;;;25.74;53.45;100712.31;108115;1288;22022;-66
2023/09/21 00:27:40;;;;;;;3.80;2.00;;;;;;;25.74;53.38;100713.04;108167;1283;21997;-66
2023/09/21 00:30:06;;;;;;;3.90;1.90;;;;;;;25.73;53.33;100713.95;108163;1277;22310;-59
2023/09/21 00:32:39;;;;;;;3.30;1.70;;;;;;;25.74;53.35;100713.39;108141;1277;22083;-66
2023/09/21 00:35:09;;;;;;;3.70;1.70;;;;;;;25.72;53.29;100713.13;108153;1282;22011;-59
2023/09/21 00:37:37;;;;;;;3.40;2.00;;;;;;;25.68;53.12;100713.82;108175;1286;21976;-59
2023/09/21 00:40:15;;;;;;;4.50;2.40;;;;;;;25.62;52.94;100712.26;108152;1283;21995;-66
2023/09/21 00:42:41;;;;;;;4.80;2.20;;;;;;;25.55;52.84;100715.27;108152;1280;21992;-66
2023/09/21 00:45:08;;;;;;;4.70;2.50;;;;;;;25.48;52.74;100716.23;108146;1288;21990;-66
2023/09/21 00:47:41;;;;;;;4.20;2.50;;;;;;;25.43;52.79;100715.14;108128;1286;21989;-59
2023/09/21 00:50:13;;;;;;;5.50;2.30;;;;;;;25.41;52.86;100716.38;107907;1284;21990;-59
2023/09/21 00:52:40;;;;;;;3.90;2.40;;;;;;;25.38;53.09;100718.30;107851;1288;22002;-58
2023/09/21 00:55:08;;;;;;;4.00;2.30;;;;;;;25.35;53.03;100721.06;107900;1283;22389;-58
2023/09/21 00:57:34;;;;;;;5.80;2.10;;;;;;;25.33;53.23;100719.40;108144;1281;22030;-58
2023/09/21 01:00:00;;;;;;;4.20;2.60;;;;;;;25.30;53.37;100717.68;108106;1288;22063;-58
2023/09/21 01:02:25;;;;;;;6.20;2.70;;;;;;;25.25;53.46;100717.09;108155;1277;22439;-58
2023/09/21 01:04:52;;;;;;;5.50;2.70;;;;;;;25.22;53.46;100718.72;107817;1284;21989;-58
2023/09/21 01:07:22;;;;;;;4.70;2.40;;;;;;;25.20;53.57;100718.11;108084;1284;22080;-65
2023/09/21 01:09:50;;;;;;;7.00;2.20;;;;;;;25.18;53.55;100719.34;108092;1280;22050;-58
2023/09/21 01:12:16;;;;;;;4.60;2.20;;;;;;;25.17;53.63;100720.11;108145;1288;22457;-65
2023/09/21 01:14:43;;;;;;;4.20;2.00;;;;;;;25.16;53.75;100716.63;107760;1288;22028;-65
2023/09/21 01:17:09;;;;;;;4.30;2.30;;;;;;;25.14;53.66;100717.13;108109;1284;21986;-58
2023/09/21 01:19:35;;;;;;;5.20;1.90;;;;;;;25.13;53.91;100711.80;108151;1288;22051;-65
2023/09/21 01:22:03;;;;;;;5.40;2.30;;;;;;;25.12;53.84;100713.16;108136;1281;22005;-58
2023/09/21 01:24:29;;;;;;;5.30;2.10;;;;;;;25.11;53.94;100713.19;107917;1288;22004;-58
2023/09/21 01:26:54;;;;;;;6.30;2.30;;;;;;;25.12;54.01;100714.63;108132;1283;22023;-58
2023/09/21 01:29:20;;;;;;;4.20;2.60;;;;;;;25.12;54.02;100715.70;108115;1288;21998;-59
2023/09/21 01:31:45;;;;;;;7.30;2.80;;;;;;;25.11;53.98;100715.90;108120;1288;21992;-66
2023/09/21 01:34:11;;;;;;;5.50;2.10;;;;;;;25.12;53.92;100712.27;108113;1288;21990;-65
2023/09/21 01:36:37;;;;;;;6.90;2.30;;;;;;;25.10;53.83;100713.23;108090;1283;22007;-66
2023/09/21 01:39:08;;;;;;;6.00;2.20;;;;;;;25.08;53.84;100713.58;108110;1283;23056;-57
2023/09/21 01:41:35;;;;;;;3.60;2.20;;;;;;;25.04;53.80;100713.12;108139;1283;22001;-58
2023/09/21 01:44:01;;;;;;;5.50;2.50;;;;;;;25.01;53.77;100708.83;108157;1283;21993;-65
2023/09/21 01:46:27;;;;;;;5.70;2.60;;;;;;;25.00;53.84;100707.66;108105;1287;22003;-65
2023/09/21 01:48:53;;;;;;;3.60;1.70;;;;;;;24.97;53.87;100705.14;108151;1287;21995;-58
2023/09/21 01:51:19;;;;;;;4.70;1.90;;;;;;;24.95;53.79;100703.52;108132;1288;21995;-66
2023/09/21 01:53:45;;;;;;;4.10;2.00;;;;;;;24.93;53.87;100702.73;108103;1288;21992;-64
2023/09/21 01:56:11;;;;;;;4.20;2.20;;;;;;;24.91;53.77;100697.84;108116;1288;21982;-60
2023/09/21 01:58:38;;;;;;;3.20;1.80;;;;;;;24.89;53.71;100699.97;108110;1287;21992;-58
2023/09/21 02:01:06;;;;;;;6.30;2.20;;;;;;;24.86;53.78;100696.05;108110;1281;21994;-67
2023/09/21 02:03:32;;;;;;;5.70;2.40;;;;;;;24.81;53.71;100697.63;108123;1288;21987;-67
2023/09/21 02:06:02;;;;;;;8.30;2.40;;;;;;;24.76;53.67;100694.20;108124;1284;21989;-66
2023/09/21 02:08:28;;;;;;;5.60;1.80;;;;;;;24.70;53.78;100691.86;108185;1287;21993;-67
2023/09/21 02:10:53;;;;;;;5.10;2.20;;;;;;;24.64;53.64;100692.63;108070;1287;22035;-59
2023/09/21 02:13:19;;;;;;;4.40;2.30;;;;;;;24.59;53.72;100688.64;108118;1288;21987;-60
2023/09/21 02:15:45;;;;;;;3.90;2.30;;;;;;;24.53;53.93;100690.98;108109;1287;21986;-66
2023/09/21 02:18:10;;;;;;;5.00;2.30;;;;;;;24.49;53.92;100691.96;108117;1278;22030;-59
2023/09/21 02:20:44;;;;;;;6.30;2.50;;;;;;;24.44;54.16;100689.95;108002;1288;22033;-67
2023/09/21 02:23:10;;;;;;;3.80;1.90;;;;;;;24.43;54.30;100689.00;108059;1286;21994;-66
2023/09/21 02:25:40;;;;;;;6.20;2.30;;;;;;;24.40;54.28;100693.48;108135;1286;21978;-67
2023/09/21 02:28:09;;;;;;;9.10;3.00;;;;;;;24.36;54.46;100698.04;108061;1287;21998;-67
2023/09/21 02:30:36;;;;;;;3.60;1.90;;;;;;;24.31;54.02;100696.94;107758;1288;21989;-59
2023/09/21 02:33:04;;;;;;;3.90;2.30;;;;;;;24.24;53.95;100697.70;108144;1283;22003;-67
2023/09/21 02:35:32;;;;;;;7.80;2.60;;;;;;;24.18;53.82;100696.34;107869;1284;21985;-67
2023/09/21 02:37:59;;;;;;;5.90;2.10;;;;;;;24.13;53.87;100700.02;108143;1288;23185;-60
2023/09/21 02:40:24;;;;;;;4.30;2.60;;;;;;;24.10;54.03;100698.83;108069;1283;22003;-67
2023/09/21 02:42:52;;;;;;;3.90;2.10;;;;;;;24.05;54.20;100699.30;108092;1277;21997;-66
2023/09/21 02:45:18;;;;;;;3.70;2.50;;;;;;;24.01;54.29;100697.93;108113;1284;21991;-59
2023/09/21 02:47:46;;;;;;;5.30;2.50;;;;;;;23.97;54.37;100694.40;108091;1287;21999;-59
2023/09/21 02:50:15;;;;;;;4.80;2.70;;;;;;;23.95;54.56;100694.90;108123;1288;22044;-66
2023/09/21 02:52:46;;;;;;;3.10;2.00;;;;;;;23.95;54.83;100694.20;108106;1287;22044;-58
2023/09/21 02:55:20;;;;;;;5.60;2.50;;;;;;;23.96;55.14;100690.89;108127;1287;21998;-66
2023/09/21 02:57:49;;;;;;;3.80;2.50;;;;;;;23.98;55.30;100694.20;108077;1284;21976;-67
2023/09/21 03:00:34;;;;;;;5.60;2.40;;;;;;;23.99;55.55;100698.23;108145;1288;22066;-66
2023/09/21 03:03:07;;;;;;;6.20;2.60;;;;;;;24.01;55.65;100698.66;108129;1288;22024;-66
2023/09/21 03:05:33;;;;;;;3.90;2.00;;;;;;;24.03;55.56;100694.42;108128;1288;22000;-59
2023/09/21 03:08:05;;;;;;;8.50;2.20;;;;;;;24.01;55.33;100694.88;108166;1288;22101;-65
2023/09/21 03:10:31;;;;;;;6.90;1.90;;;;;;;23.99;55.47;100696.61;108147;1288;22002;-59
2023/09/21 03:12:57;;;;;;;6.50;2.20;;;;;;;23.99;55.46;100691.05;108133;1288;21992;-59
2023/09/21 03:15:22;;;;;;;4.40;2.20;;;;;;;23.98;55.29;100691.30;108078;1288;21999;-59
2023/09/21 03:17:54;;;;;;;3.60;2.20;;;;;;;23.96;55.44;100694.83;108155;1288;21977;-66
2023/09/21 03:20:37;;;;;;;4.10;2.30;;;;;;;23.96;55.43;100692.88;108175;1286;23053;-59
2023/09/21 03:23:05;;;;;;;4.20;2.20;;;;;;;23.95;55.63;100693.97;108119;1288;21989;-67
2023/09/21 03:25:34;;;;;;;5.20;2.50;;;;;;;23.98;55.79;100692.04;108184;1287;22012;-60
2023/09/21 03:28:10;;;;;;;9.30;2.60;;;;;;;24.00;56.15;100686.15;108174;1285;22462;-66
2023/09/21 03:30:38;;;;;;;10.60;2.70;;;;;;;24.03;56.29;100683.48;108089;1284;22028;-67
2023/09/21 03:33:05;;;;;;;4.90;2.10;;;;;;;24.06;56.25;100682.20;108137;1288;22009;-66
2023/09/21 03:35:31;;;;;;;8.90;2.50;;;;;;;24.05;56.21;100680.66;108117;1285;22177;-59
2023/09/21 03:37:57;;;;;;;8.20;2.60;;;;;;;23.99;56.01;100686.75;108124;1282;21989;-60
2023/09/21 03:40:25;;;;;;;9.10;3.10;;;;;;;23.94;56.16;100690.62;108141;1288;21998;-66
2023/09/21 03:42:54;;;;;;;11.40;2.60;;;;;;;23.93;56.72;100692.30;108110;1288;21990;-67
2023/09/21 03:45:24;;;;;;;8.20;2.70;;;;;;;23.94;57.04;100695.50;108132;1288;21995;-59
2023/09/21 03:47:53;;;;;;;6.70;2.90;;;;;;;23.95;56.95;100696.52;108150;1287;22033;-59
2023/09/21 03:50:19;;;;;;;10.30;2.90;;;;;;;23.99;57.06;100696.64;108146;1281;21999;-67
2023/09/21 03:52:45;;;;;;;12.30;3.70;;;;;;;24.03;57.03;100697.61;108107;1287;21991;-67
2023/09/21 03:55:15;;;;;;;10.10;2.80;;;;;;;24.07;56.97;100697.20;108059;1288;22023;-58
2023/09/21 03:57:46;;;;;;;8.90;2.70;;;;;;;24.10;57.21;100691.48;108137;1288;22025;-67
2023/09/21 04:00:29;;;;;;;11.90;3.40;;;;;;;24.13;57.16;100688.20;108160;1288;21986;-58
2023/09/21 04:02:59;;;;;;;7.00;2.80;;;;;;;24.18;57.19;100686.66;108160;1288;22023;-67
2023/09/21 04:05:30;;;;;;;8.70;2.60;;;;;;;24.23;57.26;100687.58;108204;1288;21986;-59
2023/09/21 04:07:55;;;;;;;11.70;2.90;;;;;;;24.27;57.26;100687.70;108176;1278;21992;-67
2023/09/21 04:10:21;;;;;;;9.00;2.80;;;;;;;24.30;57.27;100688.55;108111;1287;22000;-58
2023/09/21 04:12:47;;;;;;;13.20;2.90;;;;;;;24.34;57.32;100687.22;108132;1288;23731;-59
2023/09/21 04:15:12;;;;;;;17.80;3.50;;;;;;;24.37;57.39;100687.56;108132;1288;22052;-66
2023/09/21 04:17:39;;;;;;;16.30;3.60;;;;;;;24.41;57.60;100685.54;108179;1281;22030;-65
2023/09/21 04:20:10;;;;;;;13.70;3.40;;;;;;;24.43;57.91;100685.93;108130;1284;22455;-67
2023/09/21 04:22:37;;;;;;;13.00;3.20;;;;;;;24.45;57.81;100687.43;108175;1286;22008;-59
2023/09/21 04:25:09;;;;;;;12.50;2.70;;;;;;;24.50;57.79;100690.66;108142;1284;21992;-59
2023/09/21 04:27:36;;;;;;;13.60;4.40;;;;;;;24.56;57.89;100690.48;108167;1288;22022;-67
2023/09/21 04:30:03;;;;;;;14.90;3.40;;;;;;;24.59;57.81;100691.09;108179;1287;22457;-67
2023/09/21 04:32:29;;;;;;;12.90;3.10;;;;;;;24.63;57.80;100692.29;108168;1288;22027;-60
2023/09/21 04:34:54;;;;;;;13.00;3.80;;;;;;;24.65;57.80;100692.00;108102;1288;23719;-67
2023/09/21 04:37:20;;;;;;;14.90;3.20;;;;;;;24.69;57.83;100693.57;108120;1287;21976;-67
2023/09/21 04:39:47;;;;;;;24.10;3.60;;;;;;;24.73;57.76;100699.04;108148;1288;21990;-58
2023/09/21 04:42:13;;;;;;;15.50;3.40;;;;;;;24.75;57.70;100702.50;108109;1288;22057;-59
2023/09/21 04:44:39;;;;;;;14.70;3.60;;;;;;;24.76;57.63;100704.38;108181;1277;21980;-66
2023/09/21 04:47:05;;;;;;;9.70;3.50;;;;;;;24.77;57.56;100705.00;108128;1288;21997;-67
2023/09/21 04:49:31;;;;;;;10.10;3.10;;;;;;;24.79;57.49;100708.67;108165;1288;21992;-58
2023/09/21 04:51:56;;;;;;;12.00;3.00;;;;;;;24.83;57.44;100709.70;108141;1288;22001;-58
2023/09/21 04:54:22;;;;;;;11.90;3.00;;;;;;;24.86;57.39;100708.57;108151;1287;22029;-58
2023/09/21 04:56:51;;;;;;;16.40;2.80;;;;;;;24.89;57.34;100708.55;108161;1287;22164;-59
2023/09/21 04:59:20;;;;;;;8.10;2.80;;;;;;;24.90;57.39;100709.57;108117;1283;22026;-68
2023/09/21 05:01:49;;;;;;;11.00;2.90;;;;;;;24.89;57.26;100710.53;108135;1281;21983;-58
2023/09/21 05:04:14;;;;;;;9.60;2.80;;;;;;;24.90;57.25;100710.30;108128;1288;21988;-58
2023/09/21 05:06:40;;;;;;;19.40;4.00;;;;;;;24.91;57.43;100712.19;108101;1284;22030;-68
2023/09/21 05:09:05;;;;;;;11.50;3.60;;;;;;;24.91;57.27;100712.23;108267;1287;21995;-67
2023/09/21 05:11:38;;;;;;;21.30;4.80;;;;;;;24.89;57.31;100710.70;108070;1288;21990;-58
2023/09/21 05:14:05;;;;;;;12.10;3.70;;;;;;;24.90;57.42;100713.00;107864;1286;21995;-59
2023/09/21 05:16:37;;;;;;;12.60;3.70;;;;;;;24.90;57.32;100712.42;108142;1277;22007;-67
2023/09/21 05:19:04;;;;;;;13.10;4.10;;;;;;;24.92;57.33;100715.74;108079;1287;22011;-67
2023/09/21 05:21:30;;;;;;;12.50;6.50;;;;;;;24.93;57.29;100717.27;108109;1280;21992;-67
2023/09/21 05:23:56;;;;;;;16.50;8.40;;;;;;;24.94;57.32;100720.78;108146;1284;22061;-66
2023/09/21 05:26:22;;;;;;;16.40;7.20;;;;;;;24.96;57.32;100727.11;108116;1288;22072;-60
2023/09/21 05:28:48;;;;;;;13.30;5.70;;;;;;;24.98;57.47;100731.88;108111;1288;22031;-59
2023/09/21 05:31:14;;;;;;;18.30;5.20;;;;;;;25.00;57.56;100733.70;108142;1288;21999;-59
2023/09/21 05:33:40;;;;;;;26.20;14.80;;;;;;;25.01;57.52;100734.88;108125;1288;21986;-66
2023/09/21 05:36:06;;;;;;;37.20;19.50;;;;;;;25.00;57.53;100734.41;108132;1280;21993;-58
2023/09/21 05:38:32;;;;;;;23.00;12.20;;;;;;;25.01;57.54;100737.72;108130;1280;21985;-67
2023/09/21 05:41:02;;;;;;;14.60;7.50;;;;;;;25.05;57.60;100734.79;108109;1288;21992;-67
2023/09/21 05:43:31;;;;;;;11.00;4.90;;;;;;;25.12;57.79;100731.62;108104;1288;22006;-67
2023/09/21 05:45:57;;;;;;;9.30;4.60;;;;;;;25.20;57.87;100738.09;108117;1279;21999;-67
2023/09/21 05:48:22;;;;;;;8.90;4.00;;;;;;;25.25;57.84;100735.96;108081;1287;22024;-58
2023/09/21 05:50:49;;;;;;;11.90;4.90;;;;;;;25.30;58.02;100735.22;108081;1288;22001;-60
2023/09/21 05:53:15;;;;;;;8.10;3.70;;;;;;;25.39;57.96;100734.77;108151;1288;21999;-59
2023/09/21 05:55:44;;;;;;;7.20;3.90;;;;;;;25.48;58.06;100732.56;108277;1285;23779;-59
2023/09/21 05:58:10;;;;;;;6.20;3.80;;;;;;;25.56;57.98;100736.40;107853;1288;21997;-66
2023/09/21 06:00:36;;;;;;;10.20;6.00;;;;;;;25.63;58.00;100741.04;108126;1287;21999;-66
2023/09/21 06:03:01;;;;;;;19.10;10.90;;;;;;;25.75;57.80;100744.00;108114;1283;22001;-67
2023/09/21 06:05:29;;;;;;;16.50;7.90;;;;;;;25.82;57.59;100744.21;108146;1284;21989;-58
2023/09/21 06:07:55;;;;;;;72.30;34.70;;;;;;;25.90;57.57;100741.86;108215;1283;22462;-58
2023/09/21 06:10:24;;;;;;;80.00;39.30;;;;;;;25.99;57.45;100744.16;108123;1283;22004;-59
2023/09/21 06:12:50;;;;;;;86.70;42.70;;;;;;;26.06;57.40;100748.81;108140;1288;21992;-67
2023/09/21 06:15:16;;;;;;;128.20;63.60;;;;;;;26.16;57.46;100751.54;108110;1287;21991;-67
2023/09/21 06:17:43;;;;;;;68.40;34.70;;;;;;;26.29;57.40;100753.17;108173;1288;22007;-68
2023/09/21 06:20:09;;;;;;;102.10;50.90;;;;;;;26.40;57.11;100756.14;107985;1288;23636;-68
2023/09/21 06:22:37;;;;;;;82.40;41.80;;;;;;;26.50;56.84;100757.59;108128;1283;21990;-59
2023/09/21 06:25:06;;;;;;;36.60;19.00;;;;;;;26.58;56.96;100754.31;108121;1287;21996;-58
2023/09/21 06:27:33;;;;;;;12.00;5.20;;;;;;;26.68;56.82;100755.92;108197;1287;22998;-67
2023/09/21 06:29:58;;;;;;;8.80;3.30;;;;;;;26.78;56.48;100758.43;108184;1287;22000;-60
2023/09/21 06:32:25;;;;;;;8.20;2.90;;;;;;;26.86;56.26;100756.98;108176;1281;22036;-68
2023/09/21 06:34:51;;;;;;;10.50;3.90;;;;;;;26.96;56.21;100756.94;108162;1285;22028;-59
2023/09/21 06:37:18;;;;;;;6.60;2.50;;;;;;;27.07;56.29;100755.52;108127;1283;21990;-67
2023/09/21 06:39:44;;;;;;;14.30;6.30;;;;;;;27.21;56.19;100752.89;108147;1288;22012;-67
2023/09/21 06:42:10;;;;;;;20.70;8.60;;;;;;;27.36;55.96;100754.05;108102;1283;22029;-68
2023/09/21 06:44:36;;;;;;;26.80;10.30;;;;;;;27.48;55.25;100758.05;108121;1288;21992;-66
2023/09/21 06:47:03;;;;;;;22.20;9.30;;;;;;;27.50;54.93;100755.37;108170;1280;21997;-66
2023/09/21 06:49:29;;;;;;;8.80;3.80;;;;;;;27.55;54.76;100752.83;108161;1280;22000;-61
2023/09/21 06:51:56;;;;;;;7.20;2.90;;;;;;;27.65;54.90;100754.00;108190;1288;21992;-58
2023/09/21 06:54:26;;;;;;;9.80;2.80;;;;;;;27.77;54.58;100751.29;108178;1288;21994;-59
2023/09/21 06:56:52;;;;;;;25.90;12.60;;;;;;;27.89;54.36;100756.84;108149;1288;21995;-67
2023/09/21 06:59:17;;;;;;;15.60;8.40;;;;;;;28.01;54.42;100755.48;108098;1288;22008;-67
2023/09/21 07:01:43;;;;;;;12.40;4.90;;;;;;;28.16;54.25;100755.58;108104;1288;21995;-59
2023/09/21 07:04:08;;;;;;;6.00;2.60;;;;;;;28.25;54.07;100757.19;108136;1288;22012;-58
2023/09/21 07:06:35;;;;;;;4.40;2.20;;;;;;;28.34;53.83;100753.61;108132;1288;21993;-58
2023/09/21 07:09:04;;;;;;;5.70;2.50;;;;;;;28.42;53.52;100753.00;108094;1288;21986;-59
2023/09/21 07:11:33;;;;;;;13.40;5.50;;;;;;;28.50;53.64;100756.14;108169;1288;21997;-60
2023/09/21 07:13:59;;;;;;;13.90;4.00;;;;;;;28.61;53.62;100754.48;107987;1288;21987;-60
2023/09/21 07:16:27;;;;;;;13.40;6.30;;;;;;;28.76;53.25;100752.40;108025;1288;22841;-67
2023/09/21 07:18:52;;;;;;;10.20;4.10;;;;;;;28.90;53.11;100748.71;108101;1288;23615;-59
2023/09/21 07:21:18;;;;;;;5.60;2.30;;;;;;;29.07;52.69;100749.45;108070;1288;21990;-67
2023/09/21 07:23:44;;;;;;;4.90;2.20;;;;;;;29.19;52.14;100748.75;108108;1277;22742;-59
2023/09/21 07:26:09;;;;;;;5.40;1.70;;;;;;;29.32;52.45;100750.17;108101;1276;21997;-68
2023/09/21 07:28:35;;;;;;;5.90;2.50;;;;;;;29.49;51.98;100749.13;108073;1288;21990;-67
2023/09/21 07:31:02;;;;;;;3.40;1.80;;;;;;;29.62;51.40;100747.80;108136;1286;21995;-68
2023/09/21 07:33:30;;;;;;;10.70;5.80;;;;;;;29.75;51.40;100745.12;108114;1287;22004;-59
2023/09/21 07:35:56;;;;;;;6.60;3.00;;;;;;;29.91;51.26;100740.77;108093;1276;21995;-68
2023/09/21 07:38:23;;;;;;;6.60;2.30;;;;;;;30.09;50.61;100740.35;108097;1288;22742;-60
2023/09/21 07:40:49;;;;;;;7.90;2.30;;;;;;;30.22;50.37;100740.05;108074;1288;21992;-68
2023/09/21 07:43:15;;;;;;;4.40;1.90;;;;;;;30.35;50.12;100735.27;108135;1288;21994;-67
2023/09/21 07:45:40;;;;;;;8.80;3.50;;;;;;;30.50;50.30;100740.27;108053;1288;22050;-68
2023/09/21 07:48:06;;;;;;;14.90;7.60;;;;;;;30.66;49.80;100737.54;108067;1285;21994;-72
2023/09/21 07:50:35;;;;;;;101.90;51.40;;;;;;;30.80;49.39;100740.30;107819;1288;23075;-59
2023/09/21 07:53:03;;;;;;;31.90;18.10;;;;;;;30.87;49.00;100737.26;108100;1283;22012;-59
2023/09/21 07:55:30;;;;;;;6.90;3.50;;;;;;;30.92;48.82;100739.52;108148;1278;21957;-67
2023/09/21 07:57:56;;;;;;;7.00;3.60;;;;;;;30.93;48.24;100741.60;108171;1288;22123;-59
2023/09/21 08:00:22;;;;;;;5.40;2.20;;;;;;;30.93;47.83;100739.20;108054;1287;21988;-68
2023/09/21 08:02:47;;;;;;;24.60;11.20;;;;;;;30.95;47.70;100741.92;108046;1286;21991;-68
2023/09/21 08:05:13;;;;;;;4.90;3.30;;;;;;;31.01;47.88;100737.98;108096;1288;21987;-59
2023/09/21 08:07:39;;;;;;;8.50;3.30;;;;;;;31.12;46.98;100736.79;108130;1283;22032;-59
2023/09/21 08:10:06;;;;;;;12.60;6.90;;;;;;;31.16;44.94;100735.91;108062;1288;22025;-68
2023/09/21 08:12:34;;;;;;;4.40;2.40;;;;;;;31.19;44.87;100731.81;108035;1288;21997;-66
2023/09/21 08:15:00;;;;;;;11.00;3.70;;;;;;;31.26;44.53;100734.56;107923;1288;22027;-67
2023/09/21 08:17:29;;;;;;;19.60;8.80;;;;;;;31.38;44.30;100730.01;108061;1288;21993;-59
2023/09/21 08:19:56;;;;;;;10.20;5.30;;;;;;;31.51;43.38;100726.23;108087;1288;22029;-59
2023/09/21 08:22:21;;;;;;;7.20;3.60;;;;;;;31.72;44.04;100721.67;108062;1288;21993;-59
2023/09/21 08:24:47;;;;;;;11.50;5.20;;;;;;;32.08;43.15;100725.70;108028;1288;21995;-59
2023/09/21 08:27:12;;;;;;;10.90;5.60;;;;;;;32.36;42.60;100726.77;108049;1285;21992;-61
2023/09/21 08:29:39;;;;;;;6.70;3.30;;;;;;;32.55;41.92;100724.39;108012;1286;22192;-58
2023/09/21 08:32:05;;;;;;;4.30;1.70;;;;;;;32.60;41.07;100718.71;108023;1288;22458;-67
2023/09/21 08:34:31;;;;;;;5.20;2.90;;;;;;;32.59;40.38;100714.48;108077;1288;22259;-67
2023/09/21 08:36:57;;;;;;;6.20;2.80;;;;;;;32.60;40.54;100715.83;108094;1288;22005;-58
2023/09/21 08:39:23;;;;;;;5.60;2.80;;;;;;;32.78;41.25;100718.42;108071;1288;22008;-59
2023/09/21 08:41:50;;;;;;;5.50;3.00;;;;;;;33.03;41.27;100716.63;107946;1289;22118;-62
2023/09/21 08:44:19;;;;;;;7.40;3.10;;;;;;;33.23;39.67;100714.42;108326;1285;21989;-59
2023/09/21 08:46:45;;;;;;;5.50;3.20;;;;;;;33.23;39.26;100713.31;107936;1288;23741;-60
2023/09/21 08:49:11;;;;;;;14.40;6.30;;;;;;;33.20;39.07;100714.34;108134;1288;21985;-68
2023/09/21 08:51:39;;;;;;;7.00;2.90;;;;;;;33.17;38.90;100716.61;107784;1288;22007;-61
2023/09/21 08:54:09;;;;;;;8.00;3.80;;;;;;;33.17;37.99;100719.91;108142;1283;22003;-65
2023/09/21 08:56:36;;;;;;;;;;;;;;;33.24;38.06;100715.05;107834;1284;21984;-68
2023/09/21 08:59:03;;;;;;;5.60;3.10;;;;;;;33.42;37.72;100719.18;108870;1288;22456;-65
2023/09/21 09:01:28;;;;;;;8.40;3.30;;;;;;;33.56;38.24;100718.48;108154;1288;21989;-58
2023/09/21 09:03:54;;;;;;;4.20;2.40;;;;;;;33.76;38.76;100712.90;108105;1288;21988;-65
2023/09/21 09:06:20;;;;;;;6.40;3.10;;;;;;;33.98;37.89;100711.73;108140;1288;22024;-66
2023/09/21 09:08:46;;;;;;;6.60;3.60;;;;;;;33.98;37.48;100712.76;108113;1288;21992;-58
2023/09/21 09:11:40;;;;;;;3.60;2.60;;;;;;;33.92;37.94;100712.00;108165;1283;21988;-65
2023/09/21 09:14:22;;;;;;;5.20;2.60;;;;;;;33.95;38.02;100710.77;108116;1288;21993;-57
2023/09/21 09:16:49;;;;;;;4.30;2.40;;;;;;;33.98;38.14;100709.71;108044;1288;21993;-66
2023/09/21 09:19:15;;;;;;;5.90;2.40;;;;;;;34.06;38.40;100710.00;108018;1288;21998;-58
2023/09/21 09:21:41;;;;;;;5.30;2.50;;;;;;;34.14;38.63;100709.66;107975;1288;21990;-66
2023/09/21 09:24:12;;;;;;;4.00;2.40;;;;;;;34.18;38.34;100710.84;108010;1288;22012;-58
2023/09/21 09:26:38;;;;;;;4.80;2.60;;;;;;;34.16;38.04;100707.23;107982;1288;22266;-67
2023/09/21 09:29:12;;;;;;;5.90;2.70;;;;;;;34.12;37.77;100708.91;107879;1288;22177;-66
2023/09/21 09:31:41;;;;;;;4.30;2.60;;;;;;;34.05;37.51;100707.49;107935;1288;22105;-59
2023/09/21 09:34:09;;;;;;;4.40;2.60;;;;;;;34.03;37.53;100701.34;107939;1288;22007;-59
2023/09/21 09:36:36;;;;;;;3.80;2.30;;;;;;;33.97;36.73;100693.27;107977;1288;21991;-66
2023/09/21 09:39:08;;;;;;;4.60;2.70;;;;;;;33.78;36.14;100701.20;107928;1280;21997;-67
2023/09/21 09:41:34;;;;;;;6.30;2.30;;;;;;;33.75;36.64;100704.82;107955;1288;21997;-59
2023/09/21 09:44:00;;;;;;;6.30;3.30;;;;;;;33.82;36.74;100703.95;107967;1288;21996;-59
2023/09/21 09:46:26;;;;;;;58.70;38.60;;;;;;;33.91;36.60;100702.42;107709;1288;21995;-58
2023/09/21 09:48:58;;;;;;;79.30;47.90;;;;;;;33.94;36.12;100699.74;107956;1288;21990;-66
2023/09/21 09:51:37;;;;;;;16.10;8.40;;;;;;;33.87;35.93;100702.08;107891;1288;22065;-66
2023/09/21 09:54:03;;;;;;;7.50;3.60;;;;;;;33.85;35.66;100700.32;107906;1276;21994;-66
2023/09/21 09:56:29;;;;;;;4.10;2.30;;;;;;;33.93;35.70;100698.22;107954;1288;24328;-60
2023/09/21 09:58:57;;;;;;;8.10;3.80;;;;;;;34.12;35.80;100696.21;107862;1282;21999;-65
2023/09/21 10:01:25;;;;;;;6.20;3.20;;;;;;;34.33;35.95;100694.08;107913;1288;21992;-67
2023/09/21 10:03:51;;;;;;;10.30;5.80;;;;;;;34.66;35.83;100690.73;107938;1288;21979;-68
2023/09/21 10:06:17;;;;;;;104.40;72.30;;;;;;;34.90;35.41;100693.75;107724;1280;22001;-67
2023/09/21 10:08:43;;;;;;;33.20;23.40;;;;;;;35.00;34.55;100696.67;107939;1288;22005;-67
2023/09/21 10:11:09;;;;;;;14.10;7.60;;;;;;;34.97;34.67;100698.52;107924;1286;21991;-60
2023/09/21 10:13:35;;;;;;;8.70;5.20;;;;;;;34.99;35.12;100694.21;107751;1288;23079;-60
2023/09/21 10:16:05;;;;;;;8.40;4.80;;;;;;;35.18;35.21;100683.36;108155;1288;21999;-69
2023/09/21 10:18:35;;;;;;;11.90;4.20;;;;;;;35.51;35.50;100681.38;108144;1288;21993;-59
2023/09/21 10:21:22;;;;;;;9.40;4.00;;;;;;;35.84;35.14;100679.63;108135;1280;21994;-59
2023/09/21 10:24:03;;;;;;;6.40;3.00;;;;;;;36.28;34.37;100681.63;108144;1286;22170;-59
2023/09/21 10:26:38;;;;;;;10.80;3.40;;;;;;;36.60;34.00;100673.89;108122;1287;24390;-59
2023/09/21 10:29:07;;;;;;;5.80;3.40;;;;;;;36.66;33.24;100670.41;108110;1283;21997;-68
2023/09/21 10:31:43;;;;;;;12.40;7.10;;;;;;;36.52;33.29;100668.05;108062;1288;22007;-68
2023/09/21 10:34:13;;;;;;;9.50;5.30;;;;;;;36.23;33.26;100667.59;107834;1288;22030;-69
2023/09/21 10:36:43;;;;;;;6.80;3.80;;;;;;;35.98;33.17;100664.67;108084;1288;22033;-59
2023/09/21 10:39:10;;;;;;;10.50;4.20;;;;;;;35.88;33.06;100658.68;108037;1287;22004;-66
2023/09/21 10:41:48;;;;;;;7.50;3.30;;;;;;;35.93;33.50;100661.61;108080;1287;22016;-65
2023/09/21 10:44:53;;;;;;;6.10;3.10;;;;;;;36.18;33.54;100658.52;108076;1288;21996;-66
2023/09/21 10:47:57;;;;;;;8.90;3.30;;;;;;;36.58;33.48;100651.46;108061;1287;21996;-59
2023/09/21 10:50:23;;;;;;;8.20;2.90;;;;;;;36.92;32.55;100640.73;107693;1288;22002;-60
2023/09/21 10:52:55;;;;;;;5.10;2.20;;;;;;;37.01;32.59;100638.88;108084;1288;21996;-59
2023/09/21 10:55:21;;;;;;;7.00;2.90;;;;;;;36.95;31.94;100636.23;108122;1287;22065;-60
2023/09/21 10:57:47;;;;;;;4.50;2.30;;;;;;;36.84;32.18;100630.17;108085;1287;22000;-59
2023/09/21 11:00:25;;;;;;;7.30;2.20;;;;;;;36.84;32.15;100626.64;108136;1288;21989;-59
2023/09/21 11:02:53;;;;;;;7.60;3.50;;;;;;;36.86;31.35;100630.98;108082;1287;24336;-59
2023/09/21 11:05:19;;;;;;;5.20;2.60;;;;;;;36.75;31.44;100629.15;108096;1287;22100;-59
2023/09/21 11:07:47;;;;;;;8.80;2.90;;;;;;;36.81;31.78;100620.91;108094;1288;22025;-59
2023/09/21 11:10:14;;;;;;;8.10;3.00;;;;;;;37.01;30.63;100622.62;108114;1288;22167;-59
2023/09/21 11:12:40;;;;;;;4.00;2.50;;;;;;;36.95;30.43;100624.54;108064;1288;21993;-59
2023/09/21 11:15:18;;;;;;;6.50;2.70;;;;;;;36.84;30.94;100622.42;108067;1288;21992;-59
2023/09/21 11:17:44;;;;;;;6.60;2.70;;;;;;;36.90;31.24;100618.55;108095;1288;21994;-59